sensor_id;sensor_type;location;lat;lon;timestamp;temperature;humidity
148;DHT22;142;50.652;12.216;2022-07-29T00:02:12;17.90;81.70
148;DHT22;142;50.652;12.216;2022-07-29T00:04:39;17.80;81.90
148;DHT22;142;50.652;12.216;2022-07-29T00:07:07;17.80;81.90
148;DHT22;142;50.652;12.216;2022-07-29T00:09:33;17.80;81.90
148;DHT22;142;50.652;12.216;2022-07-29T00:12:03;17.70;82.00
148;DHT22;142;50.652;12.216;2022-07-29T00:14:30;17.70;82.10
148;DHT22;142;50.652;12.216;2022-07-29T00:16:57;17.70;82.10
148;DHT22;142;50.652;12.216;2022-07-29T00:19:24;17.70;82.10
148;DHT22;142;50.652;12.216;2022-07-29T00:24:20;17.60;82.40
148;DHT22;142;50.652;12.216;2022-07-29T00:26:47;17.70;82.40
148;DHT22;142;50.652;12.216;2022-07-29T00:29:16;17.70;82.30
148;DHT22;142;50.652;12.216;2022-07-29T00:31:43;17.70;82.30
148;DHT22;142;50.652;12.216;2022-07-29T00:34:10;17.70;82.30
148;DHT22;142;50.652;12.216;2022-07-29T00:37:03;17.70;82.40
148;DHT22;142;50.652;12.216;2022-07-29T00:39:29;17.60;82.60
148;DHT22;142;50.652;12.216;2022-07-29T00:41:56;17.60;82.70
148;DHT22;142;50.652;12.216;2022-07-29T00:44:25;17.50;82.80
148;DHT22;142;50.652;12.216;2022-07-29T00:46:52;17.50;82.80
148;DHT22;142;50.652;12.216;2022-07-29T00:49:19;17.40;82.80
148;DHT22;142;50.652;12.216;2022-07-29T00:51:47;17.50;82.90
148;DHT22;142;50.652;12.216;2022-07-29T00:54:15;17.40;82.80
148;DHT22;142;50.652;12.216;2022-07-29T00:56:42;17.40;82.90
148;DHT22;142;50.652;12.216;2022-07-29T00:59:10;17.50;82.90
148;DHT22;142;50.652;12.216;2022-07-29T01:01:38;17.50;82.80
148;DHT22;142;50.652;12.216;2022-07-29T01:04:06;17.50;82.80
148;DHT22;142;50.652;12.216;2022-07-29T01:06:33;17.50;82.80
148;DHT22;142;50.652;12.216;2022-07-29T01:09:01;17.40;82.90
148;DHT22;142;50.652;12.216;2022-07-29T01:11:28;17.40;82.90
148;DHT22;142;50.652;12.216;2022-07-29T01:13:56;17.40;83.00
148;DHT22;142;50.652;12.216;2022-07-29T01:16:27;17.40;83.00
148;DHT22;142;50.652;12.216;2022-07-29T01:19:05;17.40;83.00
148;DHT22;142;50.652;12.216;2022-07-29T01:21:51;17.40;83.00
148;DHT22;142;50.652;12.216;2022-07-29T01:24:45;17.30;83.00
148;DHT22;142;50.652;12.216;2022-07-29T01:27:37;17.40;83.00
148;DHT22;142;50.652;12.216;2022-07-29T01:30:07;17.30;83.10
148;DHT22;142;50.652;12.216;2022-07-29T01:32:36;17.30;83.10
148;DHT22;142;50.652;12.216;2022-07-29T01:35:07;17.40;83.10
148;DHT22;142;50.652;12.216;2022-07-29T01:37:43;17.50;83.10
148;DHT22;142;50.652;12.216;2022-07-29T01:40:18;17.50;83.10
148;DHT22;142;50.652;12.216;2022-07-29T01:42:50;17.50;83.10
148;DHT22;142;50.652;12.216;2022-07-29T01:45:23;17.50;83.10
148;DHT22;142;50.652;12.216;2022-07-29T01:47:56;17.50;83.10
148;DHT22;142;50.652;12.216;2022-07-29T01:50:30;17.50;83.10
148;DHT22;142;50.652;12.216;2022-07-29T14:09:50;19.40;77.00
148;DHT22;142;50.652;12.216;2022-07-29T14:12:17;19.40;76.90
148;DHT22;142;50.652;12.216;2022-07-29T14:14:45;19.20;77.20
148;DHT22;142;50.652;12.216;2022-07-29T14:17:13;19.10;77.10
148;DHT22;142;50.652;12.216;2022-07-29T14:19:41;19.00;76.70
148;DHT22;142;50.652;12.216;2022-07-29T14:22:08;18.90;75.60
148;DHT22;142;50.652;12.216;2022-07-29T14:24:35;18.90;74.80
148;DHT22;142;50.652;12.216;2022-07-29T14:27:03;19.00;74.60
148;DHT22;142;50.652;12.216;2022-07-29T14:29:30;19.10;74.30
148;DHT22;142;50.652;12.216;2022-07-29T14:31:57;19.30;74.20
148;DHT22;142;50.652;12.216;2022-07-29T14:34:25;19.40;73.90
148;DHT22;142;50.652;12.216;2022-07-29T14:36:53;19.40;73.90
148;DHT22;142;50.652;12.216;2022-07-29T14:39:21;19.50;74.50
148;DHT22;142;50.652;12.216;2022-07-29T14:41:48;19.60;75.00
148;DHT22;142;50.652;12.216;2022-07-29T14:44:16;19.70;75.20
148;DHT22;142;50.652;12.216;2022-07-29T14:46:43;19.70;75.60
148;DHT22;142;50.652;12.216;2022-07-29T14:49:12;19.70;75.90
148;DHT22;142;50.652;12.216;2022-07-29T14:51:41;19.70;76.10
148;DHT22;142;50.652;12.216;2022-07-29T14:54:08;19.80;76.40
148;DHT22;142;50.652;12.216;2022-07-29T14:56:36;19.80;76.60
148;DHT22;142;50.652;12.216;2022-07-29T14:59:03;19.90;77.10
148;DHT22;142;50.652;12.216;2022-07-29T15:01:31;20.00;77.50
148;DHT22;142;50.652;12.216;2022-07-29T15:03:58;20.10;77.40
148;DHT22;142;50.652;12.216;2022-07-29T15:06:26;20.20;77.20
148;DHT22;142;50.652;12.216;2022-07-29T15:08:55;20.30;77.00
148;DHT22;142;50.652;12.216;2022-07-29T15:11:23;20.50;76.80
148;DHT22;142;50.652;12.216;2022-07-29T15:13:51;20.80;76.90
148;DHT22;142;50.652;12.216;2022-07-29T15:16:17;21.00;76.10
148;DHT22;142;50.652;12.216;2022-07-29T15:18:45;21.30;75.80
148;DHT22;142;50.652;12.216;2022-07-29T15:21:12;21.40;74.90
148;DHT22;142;50.652;12.216;2022-07-29T15:23:39;21.40;73.50
148;DHT22;142;50.652;12.216;2022-07-29T15:26:07;21.40;73.60
148;DHT22;142;50.652;12.216;2022-07-29T15:28:35;21.40;72.90
148;DHT22;142;50.652;12.216;2022-07-29T15:31:02;21.50;73.50
148;DHT22;142;50.652;12.216;2022-07-29T15:33:29;21.50;73.90
148;DHT22;142;50.652;12.216;2022-07-29T15:35:57;21.60;74.40
148;DHT22;142;50.652;12.216;2022-07-29T15:38:24;21.80;74.10
148;DHT22;142;50.652;12.216;2022-07-29T15:40:51;22.00;73.70
148;DHT22;142;50.652;12.216;2022-07-29T15:43:19;22.10;72.00
148;DHT22;142;50.652;12.216;2022-07-29T15:55:51;22.70;70.40
148;DHT22;142;50.652;12.216;2022-07-29T15:58:20;22.60;70.70
148;DHT22;142;50.652;12.216;2022-07-29T16:00:47;22.40;70.80
148;DHT22;142;50.652;12.216;2022-07-29T16:08:11;23.00;69.30
148;DHT22;142;50.652;12.216;2022-07-29T16:10:38;23.00;69.50
148;DHT22;142;50.652;12.216;2022-07-29T16:13:05;23.10;69.90
148;DHT22;142;50.652;12.216;2022-07-29T16:15:34;23.00;69.60
148;DHT22;142;50.652;12.216;2022-07-29T16:20:30;23.00;68.50
148;DHT22;142;50.652;12.216;2022-07-29T16:22:57;22.90;68.20
148;DHT22;142;50.652;12.216;2022-07-29T16:25:24;22.80;67.80
148;DHT22;142;50.652;12.216;2022-07-29T16:27:52;22.80;68.80
148;DHT22;142;50.652;12.216;2022-07-29T16:30:19;22.90;69.40
148;DHT22;142;50.652;12.216;2022-07-29T16:32:48;22.80;69.80
148;DHT22;142;50.652;12.216;2022-07-29T16:35:15;22.80;69.90
148;DHT22;142;50.652;12.216;2022-07-29T16:37:42;22.80;68.90
148;DHT22;142;50.652;12.216;2022-07-29T16:40:10;22.70;69.00
148;DHT22;142;50.652;12.216;2022-07-29T16:42:37;22.70;69.70
148;DHT22;142;50.652;12.216;2022-07-29T16:45:05;22.80;70.00
148;DHT22;142;50.652;12.216;2022-07-29T16:47:32;22.80;69.20
148;DHT22;142;50.652;12.216;2022-07-29T16:50:00;22.90;69.40
148;DHT22;142;50.652;12.216;2022-07-29T17:31:52;22.40;72.20
148;DHT22;142;50.652;12.216;2022-07-29T17:34:19;22.30;72.30
148;DHT22;142;50.652;12.216;2022-07-29T17:36:47;22.20;72.80
148;DHT22;142;50.652;12.216;2022-07-29T17:39:14;22.10;73.00
148;DHT22;142;50.652;12.216;2022-07-29T17:41:43;22.10;73.70
148;DHT22;142;50.652;12.216;2022-07-29T17:44:11;22.10;73.90
148;DHT22;142;50.652;12.216;2022-07-29T17:46:39;22.10;73.50
148;DHT22;142;50.652;12.216;2022-07-29T17:49:06;22.00;73.80
148;DHT22;142;50.652;12.216;2022-07-29T17:51:33;22.10;73.80
148;DHT22;142;50.652;12.216;2022-07-29T17:54:03;22.00;73.80
148;DHT22;142;50.652;12.216;2022-07-29T17:56:30;22.00;74.00
148;DHT22;142;50.652;12.216;2022-07-29T17:58:59;22.00;74.20
148;DHT22;142;50.652;12.216;2022-07-29T18:01:31;21.90;74.40
148;DHT22;142;50.652;12.216;2022-07-29T18:03:58;21.80;74.40
148;DHT22;142;50.652;12.216;2022-07-29T18:06:25;21.80;74.50
148;DHT22;142;50.652;12.216;2022-07-29T18:08:52;21.80;74.60
148;DHT22;142;50.652;12.216;2022-07-29T18:11:20;21.80;74.40
148;DHT22;142;50.652;12.216;2022-07-29T18:13:47;21.80;74.50
148;DHT22;142;50.652;12.216;2022-07-29T18:16:16;21.70;74.00
148;DHT22;142;50.652;12.216;2022-07-29T18:18:44;21.60;74.50
148;DHT22;142;50.652;12.216;2022-07-29T18:21:12;21.60;74.60
148;DHT22;142;50.652;12.216;2022-07-29T18:23:39;21.50;74.90
148;DHT22;142;50.652;12.216;2022-07-29T18:26:07;21.50;75.10
148;DHT22;142;50.652;12.216;2022-07-29T18:28:34;21.50;75.20
148;DHT22;142;50.652;12.216;2022-07-29T18:31:01;21.50;75.50
148;DHT22;142;50.652;12.216;2022-07-29T18:33:29;21.50;75.80
148;DHT22;142;50.652;12.216;2022-07-29T18:35:57;21.50;75.90
148;DHT22;142;50.652;12.216;2022-07-29T18:38:24;21.40;75.70
148;DHT22;142;50.652;12.216;2022-07-29T18:40:51;21.40;76.10
148;DHT22;142;50.652;12.216;2022-07-29T18:43:18;21.30;76.70
148;DHT22;142;50.652;12.216;2022-07-29T19:47:46;21.40;75.90
148;DHT22;142;50.652;12.216;2022-07-29T19:50:13;21.30;76.10
148;DHT22;142;50.652;12.216;2022-07-29T19:52:41;21.10;76.00
148;DHT22;142;50.652;12.216;2022-07-29T19:55:08;21.10;76.30
148;DHT22;142;50.652;12.216;2022-07-29T19:57:37;21.10;76.50
148;DHT22;142;50.652;12.216;2022-07-29T20:00:05;21.10;76.60
148;DHT22;142;50.652;12.216;2022-07-29T20:02:33;21.10;76.50
148;DHT22;142;50.652;12.216;2022-07-29T20:05:00;21.10;76.30
148;DHT22;142;50.652;12.216;2022-07-29T20:07:27;21.00;76.50
148;DHT22;142;50.652;12.216;2022-07-29T20:09:55;21.00;76.80
148;DHT22;142;50.652;12.216;2022-07-29T20:12:22;20.90;76.80
148;DHT22;142;50.652;12.216;2022-07-29T20:14:51;20.90;76.70
148;DHT22;142;50.652;12.216;2022-07-29T20:17:19;20.90;76.50
148;DHT22;142;50.652;12.216;2022-07-29T20:19:47;20.80;76.60
148;DHT22;142;50.652;12.216;2022-07-29T20:22:14;20.80;77.10
148;DHT22;142;50.652;12.216;2022-07-29T20:24:42;20.80;77.40
148;DHT22;142;50.652;12.216;2022-07-29T20:27:09;20.90;77.50
148;DHT22;142;50.652;12.216;2022-07-29T20:29:36;20.90;77.50
148;DHT22;142;50.652;12.216;2022-07-29T20:32:05;20.90;77.40
148;DHT22;142;50.652;12.216;2022-07-29T20:34:33;21.00;77.40
148;DHT22;142;50.652;12.216;2022-07-29T20:37:00;20.90;77.10
148;DHT22;142;50.652;12.216;2022-07-29T20:39:27;20.90;77.10
148;DHT22;142;50.652;12.216;2022-07-29T20:41:54;20.90;76.90
148;DHT22;142;50.652;12.216;2022-07-29T20:44:21;20.90;77.00
148;DHT22;142;50.652;12.216;2022-07-29T20:46:49;20.80;77.30
148;DHT22;142;50.652;12.216;2022-07-29T20:49:17;20.80;77.90
148;DHT22;142;50.652;12.216;2022-07-29T20:51:45;20.90;78.30
148;DHT22;142;50.652;12.216;2022-07-29T20:54:12;20.90;78.10
148;DHT22;142;50.652;12.216;2022-07-29T20:56:39;21.00;78.00
148;DHT22;142;50.652;12.216;2022-07-29T20:59:06;21.00;77.60
148;DHT22;142;50.652;12.216;2022-07-29T21:01:33;21.00;77.10
148;DHT22;142;50.652;12.216;2022-07-29T21:04:01;20.90;76.70
148;DHT22;142;50.652;12.216;2022-07-29T21:06:30;20.90;76.50
148;DHT22;142;50.652;12.216;2022-07-29T21:08:57;20.90;76.30
148;DHT22;142;50.652;12.216;2022-07-29T21:11:25;20.90;76.20
148;DHT22;142;50.652;12.216;2022-07-29T21:13:53;20.90;76.10
148;DHT22;142;50.652;12.216;2022-07-29T21:16:20;20.90;75.70
148;DHT22;142;50.652;12.216;2022-07-29T21:18:50;20.90;75.70
148;DHT22;142;50.652;12.216;2022-07-29T21:21:18;21.00;75.40
148;DHT22;142;50.652;12.216;2022-07-29T21:23:46;21.00;75.30
148;DHT22;142;50.652;12.216;2022-07-29T21:26:14;20.90;75.10
148;DHT22;142;50.652;12.216;2022-07-29T21:28:41;20.90;75.10
148;DHT22;142;50.652;12.216;2022-07-29T21:31:10;20.80;75.10
148;DHT22;142;50.652;12.216;2022-07-29T21:33:38;20.70;75.20
148;DHT22;142;50.652;12.216;2022-07-29T21:36:06;20.60;75.30
148;DHT22;142;50.652;12.216;2022-07-29T21:38:33;20.60;76.00
148;DHT22;142;50.652;12.216;2022-07-29T21:41:03;20.50;76.50
148;DHT22;142;50.652;12.216;2022-07-29T21:43:30;20.50;77.00
148;DHT22;142;50.652;12.216;2022-07-29T21:45:58;20.50;77.20
148;DHT22;142;50.652;12.216;2022-07-29T21:48:26;20.50;77.30
148;DHT22;142;50.652;12.216;2022-07-29T21:50:54;20.40;77.20
148;DHT22;142;50.652;12.216;2022-07-29T21:53:21;20.40;77.30
148;DHT22;142;50.652;12.216;2022-07-29T21:55:48;20.30;77.30
148;DHT22;142;50.652;12.216;2022-07-29T21:58:19;20.20;77.50
148;DHT22;142;50.652;12.216;2022-07-29T22:00:47;20.10;77.90
148;DHT22;142;50.652;12.216;2022-07-29T22:03:15;20.00;78.30
148;DHT22;142;50.652;12.216;2022-07-29T22:05:42;19.90;78.80
148;DHT22;142;50.652;12.216;2022-07-29T22:08:09;19.90;79.10
148;DHT22;142;50.652;12.216;2022-07-29T22:25:26;20.10;78.30
148;DHT22;142;50.652;12.216;2022-07-29T22:27:53;20.00;78.40
148;DHT22;142;50.652;12.216;2022-07-29T22:30:20;19.90;78.90
148;DHT22;142;50.652;12.216;2022-07-29T22:32:49;19.80;79.20
148;DHT22;142;50.652;12.216;2022-07-29T22:35:16;19.80;79.20
148;DHT22;142;50.652;12.216;2022-07-29T22:37:43;19.80;79.30
148;DHT22;142;50.652;12.216;2022-07-29T22:40:11;19.70;79.30
148;DHT22;142;50.652;12.216;2022-07-29T22:42:38;19.70;79.30
148;DHT22;142;50.652;12.216;2022-07-29T22:45:06;19.70;79.40
148;DHT22;142;50.652;12.216;2022-07-29T22:47:33;19.60;79.20
148;DHT22;142;50.652;12.216;2022-07-29T22:50:02;19.60;79.40
148;DHT22;142;50.652;12.216;2022-07-29T22:52:30;19.50;79.20
148;DHT22;142;50.652;12.216;2022-07-29T22:54:57;19.50;79.40
148;DHT22;142;50.652;12.216;2022-07-29T22:57:24;19.60;79.60
148;DHT22;142;50.652;12.216;2022-07-29T22:59:52;19.60;79.60
148;DHT22;142;50.652;12.216;2022-07-29T23:02:19;19.60;79.50
148;DHT22;142;50.652;12.216;2022-07-29T23:04:46;19.50;79.30
148;DHT22;142;50.652;12.216;2022-07-29T23:07:14;19.50;79.30
148;DHT22;142;50.652;12.216;2022-07-29T23:09:42;19.50;79.30
148;DHT22;142;50.652;12.216;2022-07-29T23:12:09;19.50;79.50
148;DHT22;142;50.652;12.216;2022-07-29T23:14:36;19.50;79.60
148;DHT22;142;50.652;12.216;2022-07-29T23:17:03;19.50;79.60
148;DHT22;142;50.652;12.216;2022-07-29T23:19:31;19.50;79.80
148;DHT22;142;50.652;12.216;2022-07-29T23:21:58;19.50;79.80
148;DHT22;142;50.652;12.216;2022-07-29T23:24:26;19.50;79.80
148;DHT22;142;50.652;12.216;2022-07-29T23:26:53;19.50;79.80
148;DHT22;142;50.652;12.216;2022-07-29T23:29:21;19.50;79.80
148;DHT22;142;50.652;12.216;2022-07-29T23:31:48;19.50;79.90
148;DHT22;142;50.652;12.216;2022-07-29T23:34:15;19.50;79.90
148;DHT22;142;50.652;12.216;2022-07-29T23:36:42;19.50;79.90
148;DHT22;142;50.652;12.216;2022-07-29T23:39:09;19.50;80.00
148;DHT22;142;50.652;12.216;2022-07-29T23:41:39;19.50;80.10
148;DHT22;142;50.652;12.216;2022-07-29T23:44:06;19.50;80.10
148;DHT22;142;50.652;12.216;2022-07-29T23:49:01;19.70;79.70
148;DHT22;142;50.652;12.216;2022-07-29T23:51:28;19.60;79.80
148;DHT22;142;50.652;12.216;2022-07-29T23:53:55;19.60;79.90
148;DHT22;142;50.652;12.216;2022-07-29T23:56:22;19.60;80.00
148;DHT22;142;50.652;12.216;2022-07-29T23:58:51;19.60;80.00
